Fair Oaks, California
Current Conditions -  °F | °C
As of 10:45 PM on Thursday 27 Nov 2014 (Local Time) from KMHR Reporting Station
Clear Clear  
Wind Chill: 43°   Ceiling: Unl
Heat Index: 43°   Visibility: 10mi
Dew Point: 43°   Wind: 0mph
Humidity: 100%   Direction: NA
Pressure: 30.07"   Gusts: NA
Location:  38.64°N, 121.27°W
Report Text: KMHR 280645Z 00000KT 10SM SKC 06/06 A3007
Loading
Personal Weather Stations






























Interactive Weather Map New forecast layout! Learn more

10-Day Weather Forecast

Advertisements
Track Severe Weather on mobile